Time;durP1;ratioP1;P1;durP2;ratioP2;P2;SDS_P1;SDS_P2;PMS_P1;PMS_P2;Temp;Humidity;BMP_temperature;BMP_pressure;BME280_temperature;BME280_humidity;BME280_pressure;Samples;Min_cycle;Max_cycle;Signal;HPM_P1;HPM_P2
2023/03/13 00:01:28;;;;;;;9.15;2.50;;;;;;;;;;5075843;28;20107;-79
2023/03/13 00:03:54;;;;;;;5.72;2.17;;;;;;;;;;5075453;28;20483;-80
2023/03/13 00:06:20;;;;;;;5.55;2.33;;;;;;;;;;5059325;28;20020;-80
2023/03/13 00:08:46;;;;;;;6.28;2.92;;;;;;;;;;5093882;28;20028;-80
2023/03/13 00:11:13;;;;;;;8.48;2.50;;;;;;;;;;5075563;28;20050;-80
2023/03/13 00:13:38;;;;;;;6.07;2.40;;;;;;;;;;5093929;28;20031;-80
2023/03/13 00:16:13;;;;;;;7.72;2.33;;;;;;;;;;5075198;28;20111;-80
2023/03/13 00:18:38;;;;;;;5.93;2.60;;;;;;;;;;5075227;28;20069;-80
2023/03/13 00:21:06;;;;;;;6.25;2.40;;;;;;;;;;5074931;28;20028;-80
2023/03/13 00:23:32;;;;;;;5.75;2.63;;;;;;;;;;5075518;28;20027;-79
2023/03/13 00:25:59;;;;;;;6.03;2.70;;;;;;;;;;5075518;28;20107;-80
2023/03/13 00:28:26;;;;;;;7.03;2.63;;;;;;;;;;5058427;28;20051;-80
2023/03/13 00:30:52;;;;;;;4.90;2.38;;;;;;;;;;5075043;28;20055;-80
2023/03/13 00:33:17;;;;;;;5.65;2.50;;;;;;;;;;5091629;28;20043;-80
2023/03/13 00:35:42;;;;;;;6.65;2.42;;;;;;;;;;5095470;28;20032;-80
2023/03/13 00:38:08;;;;;;;6.50;2.22;;;;;;;;;;5113486;28;20427;-80
2023/03/13 00:40:33;;;;;;;10.05;2.70;;;;;;;;;;5095192;28;20036;-80
2023/03/13 00:42:58;;;;;;;6.93;2.40;;;;;;;;;;5095078;28;20066;-80
2023/03/13 00:45:25;;;;;;;6.68;2.38;;;;;;;;;;5095014;28;20059;-79
2023/03/13 00:47:51;;;;;;;9.70;2.85;;;;;;;;;;5113652;28;20501;-80
2023/03/13 00:50:16;;;;;;;11.38;2.40;;;;;;;;;;5095135;28;20059;-80
2023/03/13 00:52:41;;;;;;;8.57;2.42;;;;;;;;;;5113280;28;20462;-80
2023/03/13 00:55:07;;;;;;;5.68;2.10;;;;;;;;;;5078104;28;20118;-79
2023/03/13 00:57:36;;;;;;;4.93;2.10;;;;;;;;;;5113420;28;20034;-79
2023/03/13 01:00:05;;;;;;;5.13;2.20;;;;;;;;;;5113300;28;20027;-79
2023/03/13 01:02:30;;;;;;;6.47;2.30;;;;;;;;;;5079052;28;20031;-79
2023/03/13 01:04:56;;;;;;;6.13;2.00;;;;;;;;;;5095307;28;20042;-80
2023/03/13 01:07:21;;;;;;;5.90;2.50;;;;;;;;;;5113297;28;20024;-80
2023/03/13 01:09:46;;;;;;;7.88;2.50;;;;;;;;;;5113439;28;20445;-79
2023/03/13 01:12:12;;;;;;;4.72;2.40;;;;;;;;;;5113355;28;20023;-79
2023/03/13 01:14:37;;;;;;;6.43;2.35;;;;;;;;;;5113245;28;20114;-80
2023/03/13 01:17:02;;;;;;;11.73;2.58;;;;;;;;;;5113319;28;20386;-79
2023/03/13 01:19:28;;;;;;;5.20;2.22;;;;;;;;;;5078037;28;20466;-80
2023/03/13 01:21:53;;;;;;;4.28;1.92;;;;;;;;;;5094893;28;20065;-80
2023/03/13 01:24:19;;;;;;;7.03;2.22;;;;;;;;;;5113156;28;20477;-81
2023/03/13 01:26:44;;;;;;;5.75;2.50;;;;;;;;;;5113054;28;20053;-81
2023/03/13 01:29:10;;;;;;;5.80;2.33;;;;;;;;;;5113137;28;20530;-80
2023/03/13 01:31:36;;;;;;;6.28;2.33;;;;;;;;;;5094968;28;20028;-81
2023/03/13 01:34:03;;;;;;;5.07;2.22;;;;;;;;;;5081916;28;20123;-80
2023/03/13 01:36:29;;;;;;;9.45;2.85;;;;;;;;;;5082021;28;20023;-80
2023/03/13 01:38:56;;;;;;;7.28;2.08;;;;;;;;;;5099159;28;20031;-80
2023/03/13 01:41:23;;;;;;;5.70;2.00;;;;;;;;;;5117640;28;20339;-80
2023/03/13 01:43:49;;;;;;;5.82;2.13;;;;;;;;;;5078312;28;20071;-80
2023/03/13 01:46:18;;;;;;;6.53;2.00;;;;;;;;;;5096790;28;20039;-79
2023/03/13 01:48:55;;;;;;;5.20;2.30;;;;;;;;;;5078722;28;20099;-79
2023/03/13 01:51:53;;;;;;;4.82;1.83;;;;;;;;;;5096577;28;20020;-79
2023/03/13 01:54:44;;;;;;;5.00;1.60;;;;;;;;;;5072877;28;20039;-79
2023/03/13 01:57:34;;;;;;;6.10;2.20;;;;;;;;;;5083021;28;20048;-79
2023/03/13 02:00:03;;;;;;;4.20;1.75;;;;;;;;;;5078263;28;20070;-79
2023/03/13 02:02:29;;;;;;;6.72;1.80;;;;;;;;;;5078644;28;20081;-79
2023/03/13 02:04:58;;;;;;;3.88;1.73;;;;;;;;;;5096539;28;20441;-79
2023/03/13 02:07:37;;;;;;;5.95;1.75;;;;;;;;;;5078143;28;20024;-80
2023/03/13 02:10:03;;;;;;;4.43;1.58;;;;;;;;;;5077929;28;20055;-80
2023/03/13 02:12:32;;;;;;;4.28;1.67;;;;;;;;;;5077966;28;20039;-80
2023/03/13 02:15:00;;;;;;;5.57;1.60;;;;;;;;;;5078492;28;20020;-80
2023/03/13 02:17:26;;;;;;;4.60;2.08;;;;;;;;;;5061005;28;20088;-80
2023/03/13 02:19:51;;;;;;;7.05;1.88;;;;;;;;;;5078395;28;20076;-80
2023/03/13 02:22:16;;;;;;;3.33;1.60;;;;;;;;;;5097560;28;20090;-79
2023/03/13 02:24:51;;;;;;;4.05;2.13;;;;;;;;;;5097270;28;20477;-79
2023/03/13 02:27:16;;;;;;;4.90;1.70;;;;;;;;;;5096189;28;20012;-80
2023/03/13 02:29:41;;;;;;;2.40;1.50;;;;;;;;;;5078130;28;20092;-79
2023/03/13 02:32:07;;;;;;;3.17;1.42;;;;;;;;;;5078081;28;20032;-79
2023/03/13 02:34:34;;;;;;;5.53;1.90;;;;;;;;;;5077934;28;20040;-79
2023/03/13 02:37:01;;;;;;;3.70;1.40;;;;;;;;;;5077555;28;20095;-79
2023/03/13 02:39:27;;;;;;;3.35;1.80;;;;;;;;;;5077734;28;20097;-80
2023/03/13 02:41:53;;;;;;;2.95;1.40;;;;;;;;;;5077756;28;20062;-80
2023/03/13 02:44:18;;;;;;;2.67;1.40;;;;;;;;;;5068365;28;20391;-80
2023/03/13 02:46:46;;;;;;;2.95;1.50;;;;;;;;;;5115956;28;20040;-80
2023/03/13 02:49:24;;;;;;;2.92;1.48;;;;;;;;;;5097589;28;20095;-80
2023/03/13 02:51:52;;;;;;;4.35;1.50;;;;;;;;;;5080522;28;20106;-79
2023/03/13 02:54:29;;;;;;;2.22;1.17;;;;;;;;;;5097422;28;20399;-80
2023/03/13 02:56:56;;;;;;;4.35;1.27;;;;;;;;;;5097726;28;20031;-80
2023/03/13 02:59:23;;;;;;;1.98;1.42;;;;;;;;;;5080354;28;20425;-79
2023/03/13 03:01:51;;;;;;;3.65;1.60;;;;;;;;;;5115614;28;20080;-79
2023/03/13 03:04:20;;;;;;;2.30;1.17;;;;;;;;;;5097550;28;20031;-79
2023/03/13 03:06:46;;;;;;;3.05;1.27;;;;;;;;;;5097244;28;20443;-80
2023/03/13 03:09:11;;;;;;;1.52;0.95;;;;;;;;;;5115373;28;20107;-80
2023/03/13 03:11:37;;;;;;;3.13;1.52;;;;;;;;;;5115447;28;20031;-80
2023/03/13 03:14:03;;;;;;;2.05;1.05;;;;;;;;;;5096881;28;20024;-80
2023/03/13 03:16:28;;;;;;;1.92;1.27;;;;;;;;;;5097076;28;20027;-80
2023/03/13 03:18:53;;;;;;;2.30;1.27;;;;;;;;;;5096873;28;20028;-81
2023/03/13 03:21:20;;;;;;;1.60;1.00;;;;;;;;;;5115430;28;20028;-80
2023/03/13 03:23:45;;;;;;;1.88;1.10;;;;;;;;;;5115145;28;20073;-80
2023/03/13 03:26:11;;;;;;;1.48;0.88;;;;;;;;;;5115271;28;20031;-80
2023/03/13 03:28:36;;;;;;;2.72;1.20;;;;;;;;;;5115066;28;20039;-80
2023/03/13 03:31:07;;;;;;;2.30;1.30;;;;;;;;;;5096755;28;20023;-80
2023/03/13 03:33:32;;;;;;;3.75;1.35;;;;;;;;;;5096610;28;20119;-80
2023/03/13 03:36:06;;;;;;;2.22;1.20;;;;;;;;;;5115164;28;20119;-80
2023/03/13 03:38:31;;;;;;;2.42;1.17;;;;;;;;;;5096586;28;20023;-80
2023/03/13 03:40:57;;;;;;;1.67;1.08;;;;;;;;;;5096537;28;20370;-81
2023/03/13 03:43:23;;;;;;;2.05;1.10;;;;;;;;;;5096448;28;20175;-80
2023/03/13 03:45:49;;;;;;;3.35;1.20;;;;;;;;;;5090811;28;20047;-81
2023/03/13 03:48:14;;;;;;;2.58;1.20;;;;;;;;;;5072456;28;20363;-80
2023/03/13 03:50:39;;;;;;;1.92;1.30;;;;;;;;;;5102591;28;20032;-80
2023/03/13 03:53:05;;;;;;;2.58;1.00;;;;;;;;;;5084130;28;20036;-80
2023/03/13 03:55:30;;;;;;;1.60;1.13;;;;;;;;;;5087003;28;20028;-79
2023/03/13 03:57:55;;;;;;;2.03;1.33;;;;;;;;;;5089262;28;20028;-80
2023/03/13 04:00:21;;;;;;;2.25;1.15;;;;;;;;;;5088442;28;20050;-79
2023/03/13 04:02:46;;;;;;;1.98;1.10;;;;;;;;;;5114448;28;20576;-79
2023/03/13 04:05:12;;;;;;;1.25;1.00;;;;;;;;;;5096268;28;20164;-80
2023/03/13 04:07:37;;;;;;;1.63;1.10;;;;;;;;;;5096248;28;20427;-79
2023/03/13 04:10:04;;;;;;;1.10;0.90;;;;;;;;;;5079144;28;20020;-79
2023/03/13 04:12:29;;;;;;;1.50;1.10;;;;;;;;;;5095791;28;20038;-78
2023/03/13 04:14:55;;;;;;;2.22;1.10;;;;;;;;;;5096328;28;20035;-79
2023/03/13 04:17:20;;;;;;;1.52;0.95;;;;;;;;;;5079328;28;20032;-79
2023/03/13 04:19:45;;;;;;;5.05;1.30;;;;;;;;;;5114542;28;20031;-79
2023/03/13 04:22:11;;;;;;;1.88;1.23;;;;;;;;;;5114479;28;20039;-79
2023/03/13 04:24:36;;;;;;;1.35;1.00;;;;;;;;;;5113899;28;20118;-79
2023/03/13 04:27:02;;;;;;;1.90;1.10;;;;;;;;;;5096017;28;20448;-79
2023/03/13 04:29:28;;;;;;;1.73;1.08;;;;;;;;;;5095805;28;20389;-79
2023/03/13 04:31:54;;;;;;;4.60;1.05;;;;;;;;;;5095619;28;20027;-79
2023/03/13 04:34:19;;;;;;;1.77;1.20;;;;;;;;;;5114486;28;20028;-79
2023/03/13 04:36:45;;;;;;;1.20;1.10;;;;;;;;;;5113907;28;20114;-79
2023/03/13 04:39:10;;;;;;;1.45;1.20;;;;;;;;;;5113821;28;20054;-79
2023/03/13 04:41:35;;;;;;;2.15;1.10;;;;;;;;;;5078579;28;20039;-79
2023/03/13 04:44:01;;;;;;;1.95;1.20;;;;;;;;;;5093808;28;20126;-79
2023/03/13 04:46:26;;;;;;;2.78;1.27;;;;;;;;;;5113846;28;20050;-80
2023/03/13 04:48:51;;;;;;;4.22;1.30;;;;;;;;;;5113523;28;20035;-79
2023/03/13 04:51:17;;;;;;;2.05;1.10;;;;;;;;;;5078644;28;20031;-80
2023/03/13 04:53:42;;;;;;;2.03;1.23;;;;;;;;;;5113550;28;20125;-79
2023/03/13 04:56:08;;;;;;;1.88;1.20;;;;;;;;;;5095441;28;20099;-79
2023/03/13 04:58:33;;;;;;;1.30;1.05;;;;;;;;;;5095236;28;20481;-79
2023/03/13 05:00:58;;;;;;;2.15;1.05;;;;;;;;;;5113455;28;20448;-79
2023/03/13 05:03:24;;;;;;;3.95;1.60;;;;;;;;;;5114331;28;20046;-79
2023/03/13 05:05:49;;;;;;;2.42;1.40;;;;;;;;;;5114188;28;20080;-78
2023/03/13 05:08:15;;;;;;;2.92;1.40;;;;;;;;;;5113029;28;20024;-79
2023/03/13 05:10:41;;;;;;;3.47;1.08;;;;;;;;;;5114434;28;20028;-79
2023/03/13 05:13:07;;;;;;;2.28;1.13;;;;;;;;;;5078957;28;20039;-79
2023/03/13 05:15:32;;;;;;;2.20;1.40;;;;;;;;;;5079211;28;20031;-79
2023/03/13 05:17:58;;;;;;;2.55;1.20;;;;;;;;;;5113872;28;20031;-78
2023/03/13 05:20:23;;;;;;;6.45;1.40;;;;;;;;;;5096326;28;20070;-79
2023/03/13 05:22:48;;;;;;;2.38;1.20;;;;;;;;;;5095811;28;20031;-79
2023/03/13 05:25:14;;;;;;;3.60;1.10;;;;;;;;;;5114041;28;20453;-79
2023/03/13 05:27:40;;;;;;;4.65;1.45;;;;;;;;;;5095072;28;20027;-77
2023/03/13 05:30:06;;;;;;;1.95;1.10;;;;;;;;;;5113033;28;20035;-77
2023/03/13 05:32:31;;;;;;;2.15;1.30;;;;;;;;;;5094669;28;20028;-77
2023/03/13 05:34:56;;;;;;;6.15;1.63;;;;;;;;;;5113398;28;20119;-78
2023/03/13 05:37:22;;;;;;;5.05;1.63;;;;;;;;;;5094690;28;20390;-77
2023/03/13 05:39:47;;;;;;;7.75;2.03;;;;;;;;;;5112872;28;20032;-77
2023/03/13 05:42:12;;;;;;;4.35;1.50;;;;;;;;;;5112809;28;20493;-78
2023/03/13 05:44:38;;;;;;;3.35;1.38;;;;;;;;;;5112752;28;20043;-77
2023/03/13 05:47:03;;;;;;;2.63;1.30;;;;;;;;;;5112922;28;20107;-79
2023/03/13 05:49:29;;;;;;;7.68;1.85;;;;;;;;;;5094791;28;20038;-85
2023/03/13 05:51:54;;;;;;;19.60;4.60;;;;;;;;;;5112889;28;20120;-80
2023/03/13 05:54:20;;;;;;;10.82;2.97;;;;;;;;;;5094575;28;20023;-80
2023/03/13 05:56:47;;;;;;;16.65;3.08;;;;;;;;;;5112563;28;20382;-79
2023/03/13 05:59:13;;;;;;;10.20;3.20;;;;;;;;;;5112730;28;20497;-80
2023/03/13 06:01:38;;;;;;;12.98;2.50;;;;;;;;;;5077513;28;20023;-80
2023/03/13 06:04:04;;;;;;;13.70;2.60;;;;;;;;;;5112711;28;20059;-80
2023/03/13 06:06:29;;;;;;;8.68;2.30;;;;;;;;;;5094368;28;20130;-80
2023/03/13 06:08:54;;;;;;;4.80;2.17;;;;;;;;;;5112493;28;20035;-81
2023/03/13 06:11:20;;;;;;;6.18;1.88;;;;;;;;;;5094247;28;20031;-81
2023/03/13 06:13:45;;;;;;;9.60;2.25;;;;;;;;;;5094392;28;20027;-79
2023/03/13 06:16:10;;;;;;;5.43;1.77;;;;;;;;;;5112840;28;20027;-80
2023/03/13 06:18:36;;;;;;;3.35;1.45;;;;;;;;;;5095907;28;20043;-79
2023/03/13 06:21:01;;;;;;;5.05;1.77;;;;;;;;;;5098712;28;20039;-79
2023/03/13 06:23:27;;;;;;;5.63;1.77;;;;;;;;;;5081553;28;20028;-79
2023/03/13 06:25:54;;;;;;;3.85;1.63;;;;;;;;;;5099261;28;20069;-79
2023/03/13 06:28:19;;;;;;;2.97;1.48;;;;;;;;;;5081769;28;20474;-79
2023/03/13 06:30:45;;;;;;;5.93;1.52;;;;;;;;;;5083832;28;20080;-79
2023/03/13 06:33:10;;;;;;;3.67;1.60;;;;;;;;;;5098369;28;20474;-80
2023/03/13 06:35:39;;;;;;;3.22;1.80;;;;;;;;;;5098469;28;20031;-79
2023/03/13 06:38:05;;;;;;;3.35;1.40;;;;;;;;;;5081372;28;20028;-80
2023/03/13 06:40:30;;;;;;;3.35;1.60;;;;;;;;;;5081319;28;20031;-79
2023/03/13 06:42:55;;;;;;;3.40;1.42;;;;;;;;;;5116702;28;20436;-79
2023/03/13 06:45:21;;;;;;;3.30;1.42;;;;;;;;;;5097987;28;20055;-80
2023/03/13 06:47:46;;;;;;;4.10;1.50;;;;;;;;;;5116855;28;20427;-80
2023/03/13 06:50:12;;;;;;;2.50;1.40;;;;;;;;;;5081215;28;20436;-80
2023/03/13 06:52:37;;;;;;;6.43;1.70;;;;;;;;;;5116537;28;20092;-80
2023/03/13 06:55:03;;;;;;;4.63;1.40;;;;;;;;;;5081382;28;20028;-79
2023/03/13 06:57:29;;;;;;;3.72;1.58;;;;;;;;;;5097892;28;20115;-80
2023/03/13 06:59:54;;;;;;;2.30;1.45;;;;;;;;;;5098295;28;20111;-79
2023/03/13 07:02:19;;;;;;;3.25;1.40;;;;;;;;;;5098626;28;20470;-80
2023/03/13 07:04:45;;;;;;;2.58;1.23;;;;;;;;;;5117140;28;20100;-80
2023/03/13 07:07:11;;;;;;;2.83;1.42;;;;;;;;;;5116718;28;20113;-79
2023/03/13 07:09:36;;;;;;;3.53;1.20;;;;;;;;;;5098099;28;20538;-79
2023/03/13 07:12:02;;;;;;;4.35;1.48;;;;;;;;;;5081065;28;20106;-79
2023/03/13 07:14:27;;;;;;;2.13;1.20;;;;;;;;;;5098352;28;20465;-79
2023/03/13 07:16:53;;;;;;;2.45;1.27;;;;;;;;;;5097594;28;20043;-79
2023/03/13 07:19:18;;;;;;;2.63;1.23;;;;;;;;;;5115877;28;20032;-79
2023/03/13 07:21:45;;;;;;;3.35;1.27;;;;;;;;;;5097754;28;20447;-79
2023/03/13 07:24:10;;;;;;;2.72;1.40;;;;;;;;;;5098193;28;20034;-80
2023/03/13 07:26:36;;;;;;;4.00;1.25;;;;;;;;;;5117513;28;20110;-79
2023/03/13 07:29:02;;;;;;;2.70;1.30;;;;;;;;;;5098235;28;20081;-79
2023/03/13 07:31:32;;;;;;;1.67;1.10;;;;;;;;;;5114997;28;20088;-80
2023/03/13 07:33:57;;;;;;;2.88;1.40;;;;;;;;;;5098248;28;20122;-80
2023/03/13 07:36:23;;;;;;;4.38;1.20;;;;;;;;;;5097743;28;20070;-80
2023/03/13 07:38:49;;;;;;;2.42;1.30;;;;;;;;;;5115604;28;20043;-79
2023/03/13 07:41:15;;;;;;;1.48;1.00;;;;;;;;;;5097298;28;20084;-80
2023/03/13 07:43:40;;;;;;;2.28;1.25;;;;;;;;;;5115851;28;20032;-80
2023/03/13 07:46:09;;;;;;;2.67;1.20;;;;;;;;;;5097066;28;20402;-80
2023/03/13 07:48:37;;;;;;;2.38;1.17;;;;;;;;;;5097862;28;20110;-80
2023/03/13 07:51:03;;;;;;;1.48;1.10;;;;;;;;;;5097546;28;20543;-79
2023/03/13 07:53:29;;;;;;;3.92;1.45;;;;;;;;;;5096743;28;20039;-80
2023/03/13 07:56:04;;;;;;;1.45;1.00;;;;;;;;;;5115073;28;20088;-80
2023/03/13 07:58:32;;;;;;;1.60;1.00;;;;;;;;;;5097075;28;20032;-79
2023/03/13 08:00:57;;;;;;;2.00;1.10;;;;;;;;;;5096975;28;20098;-80
2023/03/13 08:03:24;;;;;;;2.38;1.23;;;;;;;;;;5096782;28;20119;-79
2023/03/13 08:06:00;;;;;;;1.42;1.20;;;;;;;;;;5096946;28;20107;-79
2023/03/13 08:08:26;;;;;;;1.63;1.50;;;;;;;;;;5115149;28;20020;-79
2023/03/13 08:10:51;;;;;;;1.45;1.10;;;;;;;;;;5079590;28;20423;-79
2023/03/13 08:13:16;;;;;;;1.95;1.13;;;;;;;;;;5079687;28;20035;-79
2023/03/13 08:15:42;;;;;;;2.42;1.20;;;;;;;;;;5114707;28;20107;-79
2023/03/13 08:18:07;;;;;;;2.28;1.15;;;;;;;;;;5096456;28;20035;-79
2023/03/13 08:20:32;;;;;;;2.45;1.30;;;;;;;;;;5114535;28;20031;-79
2023/03/13 08:22:58;;;;;;;2.17;1.45;;;;;;;;;;5115189;28;20084;-79
2023/03/13 08:25:23;;;;;;;1.70;1.10;;;;;;;;;;5114478;28;20031;-79
2023/03/13 08:27:49;;;;;;;3.13;1.38;;;;;;;;;;5114386;28;20023;-79
2023/03/13 08:30:14;;;;;;;1.50;0.98;;;;;;;;;;5079426;28;20084;-79
2023/03/13 08:32:40;;;;;;;3.15;1.40;;;;;;;;;;5096142;28;20028;-80
2023/03/13 08:35:06;;;;;;;2.30;1.13;;;;;;;;;;5097060;28;20035;-80
2023/03/13 08:37:31;;;;;;;1.58;1.30;;;;;;;;;;5114345;28;20485;-79
2023/03/13 08:39:56;;;;;;;2.22;1.27;;;;;;;;;;5114321;28;20040;-80
2023/03/13 08:42:22;;;;;;;1.95;1.17;;;;;;;;;;5078926;28;20028;-79
2023/03/13 08:44:48;;;;;;;2.55;1.30;;;;;;;;;;5096015;28;20051;-79
2023/03/13 08:47:13;;;;;;;2.55;1.30;;;;;;;;;;5114644;28;20031;-79
2023/03/13 08:49:39;;;;;;;2.67;1.30;;;;;;;;;;5078860;28;20032;-79
2023/03/13 08:52:05;;;;;;;3.28;0.90;;;;;;;;;;5079082;28;20028;-79
2023/03/13 08:54:31;;;;;;;2.13;1.15;;;;;;;;;;5095781;28;20432;-79
2023/03/13 08:56:56;;;;;;;3.38;1.40;;;;;;;;;;5095780;28;20127;-79
2023/03/13 08:59:22;;;;;;;1.55;1.10;;;;;;;;;;5114234;28;20035;-79
2023/03/13 09:01:47;;;;;;;1.42;1.10;;;;;;;;;;5095960;28;20055;-79
2023/03/13 09:04:13;;;;;;;2.42;1.35;;;;;;;;;;5095608;28;20042;-79
2023/03/13 09:06:38;;;;;;;1.05;0.82;;;;;;;;;;5095687;28;20022;-80
2023/03/13 09:09:05;;;;;;;1.23;1.00;;;;;;;;;;5095808;28;20032;-80
2023/03/13 09:11:31;;;;;;;1.70;1.10;;;;;;;;;;5095690;28;20394;-80
2023/03/13 09:13:59;;;;;;;1.52;1.10;;;;;;;;;;5095855;28;20035;-80
2023/03/13 09:16:29;;;;;;;1.50;1.20;;;;;;;;;;5114023;28;20023;-80
2023/03/13 09:18:56;;;;;;;2.00;1.15;;;;;;;;;;5095503;28;20031;-79
2023/03/13 09:21:23;;;;;;;2.33;1.10;;;;;;;;;;5095653;28;20455;-79
2023/03/13 09:23:49;;;;;;;2.90;1.10;;;;;;;;;;5113866;28;20398;-79
2023/03/13 09:26:15;;;;;;;2.08;1.13;;;;;;;;;;5095819;28;20039;-79
2023/03/13 09:28:42;;;;;;;1.25;1.00;;;;;;;;;;5061777;28;20089;-80
2023/03/13 09:31:09;;;;;;;2.13;1.05;;;;;;;;;;5078532;28;20085;-80
2023/03/13 09:33:35;;;;;;;1.77;1.00;;;;;;;;;;5095430;28;20124;-80
2023/03/13 09:36:00;;;;;;;1.60;0.90;;;;;;;;;;5078639;28;20055;-79
2023/03/13 09:38:26;;;;;;;2.55;1.20;;;;;;;;;;5095608;28;20019;-79
2023/03/13 09:40:52;;;;;;;1.17;1.00;;;;;;;;;;5113527;28;20027;-79
2023/03/13 09:43:21;;;;;;;3.92;1.20;;;;;;;;;;5113515;28;20023;-79
2023/03/13 09:45:48;;;;;;;1.92;1.10;;;;;;;;;;5113413;28;20071;-80
2023/03/13 09:48:35;;;;;;;4.63;1.02;;;;;;;;;;5095329;28;20028;-80
2023/03/13 09:51:05;;;;;;;2.15;1.00;;;;;;;;;;5113459;28;20085;-80
2023/03/13 09:53:40;;;;;;;2.20;1.08;;;;;;;;;;5096042;28;20016;-80
2023/03/13 09:56:12;;;;;;;2.08;1.30;;;;;;;;;;5099542;28;20026;-81
2023/03/13 09:58:42;;;;;;;1.73;0.98;;;;;;;;;;5099200;28;20024;-80
2023/03/13 10:01:08;;;;;;;1.70;0.95;;;;;;;;;;5099281;28;20386;-81
2023/03/13 10:04:19;;;;;;;1.33;0.90;;;;;;;;;;5098936;28;20031;-80
2023/03/13 10:06:46;;;;;;;1.80;0.90;;;;;;;;;;5082173;28;20048;-80
2023/03/13 10:09:19;;;;;;;4.10;1.38;;;;;;;;;;5099106;28;20035;-80
2023/03/13 10:12:06;;;;;;;1.50;0.90;;;;;;;;;;5099358;28;20030;-81
2023/03/13 10:14:41;;;;;;;1.80;1.00;;;;;;;;;;5117087;28;20035;-81
2023/03/13 10:17:19;;;;;;;2.15;1.15;;;;;;;;;;5098965;28;20031;-80
2023/03/13 10:19:47;;;;;;;1.52;1.00;;;;;;;;;;5081513;28;20078;-80
2023/03/13 10:22:18;;;;;;;2.20;0.90;;;;;;;;;;5081819;28;20050;-79
2023/03/13 10:24:48;;;;;;;2.13;1.00;;;;;;;;;;5098626;28;20028;-80
2023/03/13 10:27:14;;;;;;;2.75;1.25;;;;;;;;;;5118787;28;20107;-80
2023/03/13 10:29:39;;;;;;;0.77;0.75;;;;;;;;;;5081357;28;20024;-80
2023/03/13 10:32:07;;;;;;;1.75;0.90;;;;;;;;;;5081743;28;20035;-81
2023/03/13 10:34:59;;;;;;;1.85;0.95;;;;;;;;;;5098665;28;20024;-79
2023/03/13 10:37:30;;;;;;;1.52;0.80;;;;;;;;;;5094697;28;20486;-79
2023/03/13 10:40:10;;;;;;;2.70;1.05;;;;;;;;;;5116587;28;20054;-79
2023/03/13 10:42:41;;;;;;;1.48;0.90;;;;;;;;;;5098441;28;20028;-80
2023/03/13 10:45:14;;;;;;;0.65;0.65;;;;;;;;;;5117686;28;20039;-80
2023/03/13 10:47:39;;;;;;;2.10;0.90;;;;;;;;;;5099477;28;20035;-80
2023/03/13 10:50:05;;;;;;;1.30;0.90;;;;;;;;;;5099022;28;20035;-80
2023/03/13 10:52:43;;;;;;;1.27;0.70;;;;;;;;;;5116778;28;20035;-80
2023/03/13 10:55:16;;;;;;;1.45;1.00;;;;;;;;;;5081203;28;20042;-80
2023/03/13 10:57:43;;;;;;;1.85;0.90;;;;;;;;;;5098823;28;20027;-80
2023/03/13 11:00:37;;;;;;;1.73;0.80;;;;;;;;;;5098414;28;20462;-80
2023/03/13 11:03:24;;;;;;;2.47;1.00;;;;;;;;;;5098060;28;20102;-80
2023/03/13 11:05:58;;;;;;;3.03;1.10;;;;;;;;;;5098155;28;20047;-80
2023/03/13 11:08:25;;;;;;;2.35;1.00;;;;;;;;;;5080808;28;20024;-80
2023/03/13 11:10:58;;;;;;;2.30;0.95;;;;;;;;;;5098086;28;20106;-81
2023/03/13 11:13:38;;;;;;;2.22;1.08;;;;;;;;;;5097941;28;20042;-79
2023/03/13 11:16:12;;;;;;;1.83;1.10;;;;;;;;;;5116216;28;20106;-79
2023/03/13 11:18:56;;;;;;;1.67;0.80;;;;;;;;;;5116704;28;20055;-79
2023/03/13 11:21:39;;;;;;;1.33;0.98;;;;;;;;;;5081903;28;20493;-79
2023/03/13 11:24:12;;;;;;;1.75;1.08;;;;;;;;;;5116187;28;20035;-79
2023/03/13 11:26:43;;;;;;;2.20;1.13;;;;;;;;;;5099537;28;20111;-80
2023/03/13 11:29:26;;;;;;;1.48;0.90;;;;;;;;;;5101524;28;20031;-78
2023/03/13 11:32:04;;;;;;;2.08;1.08;;;;;;;;;;5098191;28;20028;-79
2023/03/13 11:34:35;;;;;;;2.90;1.40;;;;;;;;;;5082068;28;20028;-79
2023/03/13 11:37:04;;;;;;;2.00;0.98;;;;;;;;;;5097689;28;20073;-79
2023/03/13 11:39:48;;;;;;;4.93;1.10;;;;;;;;;;5097553;28;20028;-79
2023/03/13 11:42:35;;;;;;;1.80;0.95;;;;;;;;;;5096641;28;20024;-81
2023/03/13 11:45:14;;;;;;;3.38;0.95;;;;;;;;;;5114619;28;20047;-80
2023/03/13 11:48:16;;;;;;;3.10;1.10;;;;;;;;;;5114616;28;20478;-79
2023/03/13 11:50:56;;;;;;;1.52;1.05;;;;;;;;;;5114631;28;20032;-80
2023/03/13 11:53:30;;;;;;;2.15;1.00;;;;;;;;;;5114583;28;20024;-80
2023/03/13 11:56:07;;;;;;;4.38;1.17;;;;;;;;;;5096397;28;20020;-80
2023/03/13 11:59:04;;;;;;;1.70;1.02;;;;;;;;;;5096804;28;20111;-79
2023/03/13 12:01:37;;;;;;;2.45;1.00;;;;;;;;;;5115163;28;20500;-80
2023/03/13 12:04:14;;;;;;;2.03;1.07;;;;;;;;;;5079791;28;20487;-80
2023/03/13 12:06:49;;;;;;;1.35;1.00;;;;;;;;;;5096564;28;20788;-80
2023/03/13 12:09:24;;;;;;;3.85;1.00;;;;;;;;;;5096721;28;20035;-80
2023/03/13 12:11:58;;;;;;;2.78;1.05;;;;;;;;;;5096434;28;20027;-79
2023/03/13 12:14:45;;;;;;;2.70;1.30;;;;;;;;;;5096567;28;20053;-80
2023/03/13 12:17:15;;;;;;;1.77;1.00;;;;;;;;;;5095926;28;20058;-80
2023/03/13 12:19:46;;;;;;;1.33;0.98;;;;;;;;;;5114706;28;20114;-79
2023/03/13 12:22:15;;;;;;;2.00;1.00;;;;;;;;;;5114626;28;20411;-79
2023/03/13 12:24:48;;;;;;;1.30;1.02;;;;;;;;;;5096666;28;20023;-80
2023/03/13 12:27:19;;;;;;;4.55;0.90;;;;;;;;;;5096598;28;20051;-80
2023/03/13 12:29:56;;;;;;;1.00;0.88;;;;;;;;;;5114779;28;20434;-80
2023/03/13 12:32:34;;;;;;;3.20;0.80;;;;;;;;;;5096162;28;20108;-80
2023/03/13 12:35:23;;;;;;;1.95;1.05;;;;;;;;;;5114830;28;20473;-79
2023/03/13 12:38:13;;;;;;;2.20;0.93;;;;;;;;;;5079082;28;20028;-80
2023/03/13 12:40:50;;;;;;;1.17;0.90;;;;;;;;;;5114226;28;20032;-80
2023/03/13 12:43:19;;;;;;;2.22;1.10;;;;;;;;;;5096037;28;20462;-80
2023/03/13 12:46:20;;;;;;;3.30;1.15;;;;;;;;;;5096064;28;20052;-80
2023/03/13 12:49:08;;;;;;;1.90;0.90;;;;;;;;;;5097026;28;20106;-80
2023/03/13 12:52:01;;;;;;;1.35;0.82;;;;;;;;;;5096071;28;20023;-80
2023/03/13 12:54:39;;;;;;;2.25;1.00;;;;;;;;;;5114344;28;20019;-80
2023/03/13 12:57:59;;;;;;;2.20;1.13;;;;;;;;;;5114422;28;20102;-79
2023/03/13 13:00:26;;;;;;;4.38;1.75;;;;;;;;;;5031471;28;20032;-79
2023/03/13 13:03:35;;;;;;;2.28;1.13;;;;;;;;;;5031899;28;20054;-79
2023/03/13 13:06:09;;;;;;;3.42;1.30;;;;;;;;;;5026576;28;20609;-79
2023/03/13 13:08:40;;;;;;;4.45;1.88;;;;;;;;;;4998578;28;20040;-79
2023/03/13 13:11:33;;;;;;;2.28;1.20;;;;;;;;;;5015019;28;20512;-79
2023/03/13 13:14:00;;;;;;;3.50;1.45;;;;;;;;;;5031258;28;20025;-79
2023/03/13 13:16:27;;;;;;;4.20;1.38;;;;;;;;;;4998432;28;20033;-79
2023/03/13 13:18:52;;;;;;;2.08;1.00;;;;;;;;;;4998411;28;20030;-80
2023/03/13 13:21:20;;;;;;;4.90;1.60;;;;;;;;;;4998781;28;20051;-79
2023/03/13 13:23:47;;;;;;;2.67;1.25;;;;;;;;;;5014528;28;20484;-80
2023/03/13 13:26:32;;;;;;;5.05;1.52;;;;;;;;;;5031624;28;20029;-80
2023/03/13 13:29:20;;;;;;;2.72;1.30;;;;;;;;;;5033149;28;20116;-79
2023/03/13 13:31:49;;;;;;;1.85;1.10;;;;;;;;;;5035020;28;20530;-79
2023/03/13 13:34:35;;;;;;;1.85;1.23;;;;;;;;;;5055342;28;20101;-79
2023/03/13 13:37:20;;;;;;;3.63;1.25;;;;;;;;;;5103252;28;20047;-79
2023/03/13 13:39:49;;;;;;;4.38;1.50;;;;;;;;;;5103606;28;20028;-80
2023/03/13 13:42:29;;;;;;;2.80;1.08;;;;;;;;;;5100808;28;20039;-79
2023/03/13 13:45:03;;;;;;;4.43;1.30;;;;;;;;;;5118206;28;20024;-79
2023/03/13 13:47:29;;;;;;;;;;;;;;;;;;5082703;28;20096;-79
2023/03/13 13:49:56;;;;;;;3.22;1.38;;;;;;;;;;5099387;28;20006;-79
2023/03/13 13:52:35;;;;;;;2.40;1.15;;;;;;;;;;5099528;28;20020;-79
2023/03/13 13:55:02;;;;;;;7.00;1.48;;;;;;;;;;5117704;28;20072;-79
2023/03/13 13:57:31;;;;;;;2.17;1.20;;;;;;;;;;5082406;28;20345;-79
2023/03/13 14:00:21;;;;;;;5.25;1.60;;;;;;;;;;5099279;28;20023;-80
2023/03/13 14:02:55;;;;;;;3.63;1.27;;;;;;;;;;5099802;28;20019;-79
2023/03/13 14:05:25;;;;;;;;;;;;;;;;;;5118311;28;20039;-79
2023/03/13 14:08:03;;;;;;;3.83;1.30;;;;;;;;;;5117082;28;19919;-79
2023/03/13 14:10:40;;;;;;;3.95;1.50;;;;;;;;;;5098893;28;20118;-79
2023/03/13 14:13:20;;;;;;;2.58;1.40;;;;;;;;;;5081848;28;20032;-79
2023/03/13 14:15:48;;;;;;;3.97;1.50;;;;;;;;;;5099009;28;20028;-79
2023/03/13 14:18:25;;;;;;;5.65;2.05;;;;;;;;;;5098604;28;20094;-79
2023/03/13 14:20:59;;;;;;;4.35;1.40;;;;;;;;;;5081846;28;20020;-79
2023/03/13 14:23:41;;;;;;;5.93;1.80;;;;;;;;;;5119189;28;20111;-79
2023/03/13 14:26:18;;;;;;;5.45;2.08;;;;;;;;;;5099282;28;20424;-79
2023/03/13 14:29:01;;;;;;;4.90;1.50;;;;;;;;;;5098593;28;20085;-79
2023/03/13 14:31:29;;;;;;;3.90;1.80;;;;;;;;;;5098963;28;20035;-79
2023/03/13 14:33:59;;;;;;;3.55;1.52;;;;;;;;;;5098564;28;20032;-79
2023/03/13 14:36:25;;;;;;;4.70;1.90;;;;;;;;;;5098771;28;20024;-79
2023/03/13 14:38:53;;;;;;;3.70;1.63;;;;;;;;;;5081115;28;20020;-79
2023/03/13 14:41:43;;;;;;;4.40;2.00;;;;;;;;;;5098253;28;20038;-79
2023/03/13 14:44:22;;;;;;;4.40;1.75;;;;;;;;;;5099174;28;20087;-79
2023/03/13 14:46:51;;;;;;;5.38;2.10;;;;;;;;;;5100717;28;20151;-79
2023/03/13 14:49:19;;;;;;;5.50;1.90;;;;;;;;;;5120483;28;20177;-79
2023/03/13 14:51:49;;;;;;;8.00;2.33;;;;;;;;;;5089573;28;20019;-79
2023/03/13 14:54:54;;;;;;;6.38;1.83;;;;;;;;;;5082059;28;20032;-79
2023/03/13 14:57:24;;;;;;;4.97;1.77;;;;;;;;;;5081519;28;20139;-79
2023/03/13 14:59:50;;;;;;;4.03;1.75;;;;;;;;;;5098487;28;20076;-79